KSLI

Los Alamitos AAF Airport

Los Alamitos, California, USA
TAF KSLI 192102Z 1921/2103 23009KT 9999 SCT120 BKN250 QNH2999INS BECMG 2002/2003 VRB06KT 9999 SCT200 QNH3000INS BECMG 2007/2008 VRB06KT 4800 BR BKN020 QNH3001INS TEMPO 2008/2015 BKN010 BECMG 2014/2015 04009KT 9999 NSW SCT020 BKN200 QNH3004INS BECMG 2019/2020 25009KT 9999 SCT080 QNH3001INS BECMG 2102/2103 VRB06KT 4800 BR SCT050 QNH3005INS TX22/1921Z TN09/2012Z
Issued Valid From Valid To
Nov-19 @ 21:02 UTC
(an hour ago)
Nov-19 @ 21:00 UTC
(an hour ago)
Nov-21 @ 03:00 UTC
(-1 days ago)
Nov-19 @ 21:00 to Nov-20 @ 02:00
TAF KSLI 192102Z 1921/2103 23009KT 9999 SCT120 BKN250 QNH2999INS
Wind Visibility Clouds Readings
230° at 9 knots Greater than 6 miles
  • Scattered at 12,000' AGL
  • Broken at 25,000' AGL
Altimeter 30" Hg
Pressure 1016 hPa
Becoming Nov-20 @ 02:00 to Nov-20 @ 07:00
BECMG 2002/2003 VRB06KT 9999 SCT200 QNH3000INS
Wind Visibility Clouds Readings
Variable at 6 knots Greater than 6 miles
  • Scattered at 20,000' AGL
Altimeter 30" Hg
Pressure 1016 hPa
Becoming Nov-20 @ 07:00 to Nov-20 @ 14:00
BECMG 2007/2008 VRB06KT 4800 BR BKN020 QNH3001INS
Wind Visibility Clouds Conditions Readings
Variable at 6 knots 3.0 miles
  • Broken at 2,000' AGL
  • Mist
Altimeter 30" Hg
Pressure 1016 hPa
Temporary Nov-20 @ 08:00 to Nov-20 @ 15:00
TEMPO 2008/2015 BKN010
Clouds
  • Broken at 1,000' AGL
Becoming Nov-20 @ 14:00 to Nov-20 @ 19:00
BECMG 2014/2015 04009KT 9999 NSW SCT020 BKN200 QNH3004INS
Wind Visibility Clouds Conditions Readings
40° at 9 knots Greater than 6 miles
  • Scattered at 2,000' AGL
  • Broken at 20,000' AGL
Altimeter 30.03" Hg
Pressure 1017 hPa
Becoming Nov-20 @ 19:00 to Nov-21 @ 02:00
BECMG 2019/2020 25009KT 9999 SCT080 QNH3001INS
Wind Visibility Clouds Conditions Readings
250° at 9 knots Greater than 6 miles
  • Scattered at 8,000' AGL
Altimeter 30" Hg
Pressure 1016 hPa
Becoming Nov-21 @ 02:00 to Nov-21 @ 03:00
BECMG 2102/2103 VRB06KT 4800 BR SCT050 QNH3005INS TX22/1921Z TN09/2012Z
Wind Visibility Clouds Conditions Readings
Variable at 6 knots 3.0 miles
  • Scattered at 5,000' AGL
  • Mist
Altimeter 30.06" Hg
Pressure 1018 hPa
TAF KSLI 192102Z 1921/2103 23009KT 9999 SCT120 BKN250 QNH2999INS BECMG 2002/2003 VRB06KT 9999 SCT200 QNH3000INS BECMG 2007/2008 VRB06KT 4800 BR BKN020 QNH3001INS TEMPO 2008/2015 BKN010 BECMG 2014/2015 04009KT 9999 NSW SCT020 BKN200 QNH3004INS BECMG 2019/2020 25009KT 9999 SCT080 QNH3001INS BECMG 2102/2103 VRB06KT 4800 BR SCT050 QNH3005INS TX22/1921Z TN09/2012Z
Issued Nov-19 @ 21:02 UTC
(an hour ago)
Valid From Nov-19 @ 21:00 UTC
(an hour ago)
Valid To Nov-21 @ 03:00 UTC
(-1 days ago)
Nov-19 @ 21:00 - Nov-20 @ 02:00
Wind Visibility
230° at 9 knots Greater than 6 miles
Clouds
  • Scattered at 12,000' AGL
  • Broken at 25,000' AGL
Becoming Nov-20 @ 02:00 - Nov-20 @ 07:00
Wind Visibility
Variable at 6 knots Greater than 6 miles
Clouds
  • Scattered at 20,000' AGL
Becoming Nov-20 @ 07:00 - Nov-20 @ 14:00
Wind Visibility
Variable at 6 knots 3.0 miles
Clouds
  • Broken at 2,000' AGL
Conditions
  • Mist
Temporary Nov-20 @ 08:00 - Nov-20 @ 15:00
Clouds
  • Broken at 1,000' AGL
Becoming Nov-20 @ 14:00 - Nov-20 @ 19:00
Wind Visibility
40° at 9 knots Greater than 6 miles
Clouds
  • Scattered at 2,000' AGL
  • Broken at 20,000' AGL
Conditions
Becoming Nov-20 @ 19:00 - Nov-21 @ 02:00
Wind Visibility
250° at 9 knots Greater than 6 miles
Clouds
  • Scattered at 8,000' AGL
Conditions
Becoming Nov-21 @ 02:00 - Nov-21 @ 03:00
Wind Visibility
Variable at 6 knots 3.0 miles
Clouds
  • Scattered at 5,000' AGL
Conditions
  • Mist